sensor_id;sensor_type;location;lat;lon;timestamp;P1;durP1;ratioP1;P2;durP2;ratioP2
18820;SDS011;9539;59.332;18.034;2024-01-07T00:02:13;6.13;;;4.07;;
18820;SDS011;9539;59.332;18.034;2024-01-07T00:04:35;8.13;;;4.05;;
18820;SDS011;9539;59.332;18.034;2024-01-07T00:06:57;9.48;;;4.50;;
18820;SDS011;9539;59.332;18.034;2024-01-07T00:09:19;6.32;;;4.18;;
18820;SDS011;9539;59.332;18.034;2024-01-07T00:11:41;9.43;;;4.78;;
18820;SDS011;9539;59.332;18.034;2024-01-07T00:14:03;7.68;;;4.32;;
18820;SDS011;9539;59.332;18.034;2024-01-07T00:16:27;11.23;;;4.53;;
18820;SDS011;9539;59.332;18.034;2024-01-07T00:18:49;7.50;;;3.92;;
18820;SDS011;9539;59.332;18.034;2024-01-07T00:21:11;11.52;;;4.82;;
18820;SDS011;9539;59.332;18.034;2024-01-07T00:23:33;8.82;;;4.50;;
18820;SDS011;9539;59.332;18.034;2024-01-07T00:25:55;9.05;;;4.50;;
18820;SDS011;9539;59.332;18.034;2024-01-07T00:28:17;9.15;;;4.32;;
18820;SDS011;9539;59.332;18.034;2024-01-07T00:30:39;10.68;;;5.15;;
18820;SDS011;9539;59.332;18.034;2024-01-07T00:33:02;9.52;;;5.15;;
18820;SDS011;9539;59.332;18.034;2024-01-07T00:35:24;7.72;;;4.57;;
18820;SDS011;9539;59.332;18.034;2024-01-07T00:37:46;8.57;;;4.75;;
18820;SDS011;9539;59.332;18.034;2024-01-07T00:40:09;11.55;;;4.30;;
18820;SDS011;9539;59.332;18.034;2024-01-07T00:42:32;9.63;;;4.88;;
18820;SDS011;9539;59.332;18.034;2024-01-07T00:44:53;9.90;;;4.57;;
18820;SDS011;9539;59.332;18.034;2024-01-07T00:47:15;7.78;;;4.53;;
18820;SDS011;9539;59.332;18.034;2024-01-07T00:49:39;9.52;;;4.88;;
18820;SDS011;9539;59.332;18.034;2024-01-07T00:52:01;7.72;;;4.40;;
18820;SDS011;9539;59.332;18.034;2024-01-07T00:54:23;10.35;;;4.32;;
18820;SDS011;9539;59.332;18.034;2024-01-07T00:56:45;8.35;;;4.90;;
18820;SDS011;9539;59.332;18.034;2024-01-07T00:59:07;8.93;;;4.72;;
18820;SDS011;9539;59.332;18.034;2024-01-07T01:01:29;8.27;;;4.43;;
18820;SDS011;9539;59.332;18.034;2024-01-07T01:03:51;8.82;;;4.30;;
18820;SDS011;9539;59.332;18.034;2024-01-07T01:06:15;8.45;;;4.53;;
18820;SDS011;9539;59.332;18.034;2024-01-07T01:08:37;9.05;;;4.57;;
18820;SDS011;9539;59.332;18.034;2024-01-07T01:10:59;9.05;;;4.55;;
18820;SDS011;9539;59.332;18.034;2024-01-07T01:13:21;6.05;;;3.78;;
18820;SDS011;9539;59.332;18.034;2024-01-07T01:15:43;14.85;;;4.53;;
18820;SDS011;9539;59.332;18.034;2024-01-07T01:18:05;8.23;;;4.25;;
18820;SDS011;9539;59.332;18.034;2024-01-07T01:20:27;8.77;;;4.72;;
18820;SDS011;9539;59.332;18.034;2024-01-07T01:22:51;6.80;;;4.20;;
18820;SDS011;9539;59.332;18.034;2024-01-07T01:25:13;8.60;;;4.40;;
18820;SDS011;9539;59.332;18.034;2024-01-07T01:27:35;14.07;;;6.07;;
18820;SDS011;9539;59.332;18.034;2024-01-07T01:29:57;9.05;;;4.85;;
18820;SDS011;9539;59.332;18.034;2024-01-07T01:32:19;9.07;;;4.90;;
18820;SDS011;9539;59.332;18.034;2024-01-07T01:34:41;9.23;;;4.60;;
18820;SDS011;9539;59.332;18.034;2024-01-07T01:37:03;7.60;;;4.47;;
18820;SDS011;9539;59.332;18.034;2024-01-07T01:39:27;7.95;;;4.20;;
18820;SDS011;9539;59.332;18.034;2024-01-07T01:41:49;7.60;;;4.60;;
18820;SDS011;9539;59.332;18.034;2024-01-07T01:44:11;8.00;;;4.75;;
18820;SDS011;9539;59.332;18.034;2024-01-07T01:46:33;9.07;;;4.78;;
18820;SDS011;9539;59.332;18.034;2024-01-07T01:48:55;7.22;;;4.15;;
18820;SDS011;9539;59.332;18.034;2024-01-07T01:51:18;8.27;;;4.40;;
18820;SDS011;9539;59.332;18.034;2024-01-07T01:53:40;7.20;;;4.63;;
18820;SDS011;9539;59.332;18.034;2024-01-07T01:56:04;12.35;;;4.85;;
18820;SDS011;9539;59.332;18.034;2024-01-07T01:58:27;8.63;;;4.93;;
18820;SDS011;9539;59.332;18.034;2024-01-07T02:00:50;7.35;;;4.47;;
18820;SDS011;9539;59.332;18.034;2024-01-07T02:03:12;7.55;;;4.65;;
18820;SDS011;9539;59.332;18.034;2024-01-07T02:05:34;7.32;;;5.00;;
18820;SDS011;9539;59.332;18.034;2024-01-07T02:07:56;7.75;;;4.40;;
18820;SDS011;9539;59.332;18.034;2024-01-07T02:10:19;7.65;;;4.18;;
18820;SDS011;9539;59.332;18.034;2024-01-07T02:12:42;7.72;;;4.40;;
18820;SDS011;9539;59.332;18.034;2024-01-07T02:15:05;10.15;;;4.95;;
18820;SDS011;9539;59.332;18.034;2024-01-07T02:17:27;8.73;;;4.50;;
18820;SDS011;9539;59.332;18.034;2024-01-07T02:19:49;8.65;;;4.88;;
18820;SDS011;9539;59.332;18.034;2024-01-07T02:22:11;9.43;;;4.90;;
18820;SDS011;9539;59.332;18.034;2024-01-07T02:24:35;9.63;;;4.63;;
18820;SDS011;9539;59.332;18.034;2024-01-07T02:26:57;8.70;;;4.30;;
18820;SDS011;9539;59.332;18.034;2024-01-07T02:29:22;7.78;;;4.88;;
18820;SDS011;9539;59.332;18.034;2024-01-07T02:31:44;9.73;;;4.28;;
18820;SDS011;9539;59.332;18.034;2024-01-07T02:34:06;8.05;;;4.43;;
18820;SDS011;9539;59.332;18.034;2024-01-07T02:36:30;9.77;;;4.80;;
18820;SDS011;9539;59.332;18.034;2024-01-07T02:38:52;11.65;;;4.90;;
18820;SDS011;9539;59.332;18.034;2024-01-07T02:41:16;8.48;;;4.63;;
18820;SDS011;9539;59.332;18.034;2024-01-07T02:43:40;11.40;;;5.57;;
18820;SDS011;9539;59.332;18.034;2024-01-07T02:46:02;7.82;;;4.18;;
18820;SDS011;9539;59.332;18.034;2024-01-07T02:48:24;8.27;;;5.13;;
18820;SDS011;9539;59.332;18.034;2024-01-07T02:50:46;9.73;;;4.30;;
18820;SDS011;9539;59.332;18.034;2024-01-07T02:53:09;10.02;;;5.05;;
18820;SDS011;9539;59.332;18.034;2024-01-07T02:55:32;6.35;;;4.28;;
18820;SDS011;9539;59.332;18.034;2024-01-07T02:57:55;9.18;;;3.92;;
18820;SDS011;9539;59.332;18.034;2024-01-07T03:00:17;9.50;;;4.95;;
18820;SDS011;9539;59.332;18.034;2024-01-07T03:02:40;8.32;;;4.40;;
18820;SDS011;9539;59.332;18.034;2024-01-07T03:05:02;8.25;;;4.35;;
18820;SDS011;9539;59.332;18.034;2024-01-07T03:07:24;10.05;;;4.43;;
18820;SDS011;9539;59.332;18.034;2024-01-07T03:09:47;8.68;;;4.35;;
18820;SDS011;9539;59.332;18.034;2024-01-07T03:12:09;7.70;;;4.22;;
18820;SDS011;9539;59.332;18.034;2024-01-07T03:14:33;8.30;;;4.45;;
18820;SDS011;9539;59.332;18.034;2024-01-07T03:16:55;8.57;;;5.13;;
18820;SDS011;9539;59.332;18.034;2024-01-07T03:19:17;6.55;;;4.35;;
18820;SDS011;9539;59.332;18.034;2024-01-07T03:21:39;9.88;;;4.65;;
18820;SDS011;9539;59.332;18.034;2024-01-07T03:24:01;6.72;;;4.22;;
18820;SDS011;9539;59.332;18.034;2024-01-07T03:26:23;8.20;;;4.78;;
18820;SDS011;9539;59.332;18.034;2024-01-07T03:28:46;9.38;;;4.28;;
18820;SDS011;9539;59.332;18.034;2024-01-07T03:31:11;8.10;;;4.88;;
18820;SDS011;9539;59.332;18.034;2024-01-07T03:33:34;5.68;;;3.80;;
18820;SDS011;9539;59.332;18.034;2024-01-07T03:35:56;7.82;;;4.32;;
18820;SDS011;9539;59.332;18.034;2024-01-07T03:38:18;6.97;;;4.32;;
18820;SDS011;9539;59.332;18.034;2024-01-07T03:40:40;6.63;;;3.95;;
18820;SDS011;9539;59.332;18.034;2024-01-07T03:43:02;8.30;;;4.80;;
18820;SDS011;9539;59.332;18.034;2024-01-07T03:45:24;9.35;;;4.35;;
18820;SDS011;9539;59.332;18.034;2024-01-07T03:47:48;8.40;;;4.15;;
18820;SDS011;9539;59.332;18.034;2024-01-07T03:50:10;6.95;;;4.38;;
18820;SDS011;9539;59.332;18.034;2024-01-07T03:52:32;7.45;;;4.43;;
18820;SDS011;9539;59.332;18.034;2024-01-07T03:54:55;6.80;;;4.50;;
18820;SDS011;9539;59.332;18.034;2024-01-07T03:57:17;8.35;;;4.47;;
18820;SDS011;9539;59.332;18.034;2024-01-07T03:59:39;9.93;;;4.75;;
18820;SDS011;9539;59.332;18.034;2024-01-07T04:02:02;7.15;;;3.85;;
18820;SDS011;9539;59.332;18.034;2024-01-07T04:04:25;6.65;;;4.22;;
18820;SDS011;9539;59.332;18.034;2024-01-07T04:06:47;8.73;;;4.30;;
18820;SDS011;9539;59.332;18.034;2024-01-07T04:09:11;8.02;;;4.90;;
18820;SDS011;9539;59.332;18.034;2024-01-07T04:11:38;6.70;;;4.32;;
18820;SDS011;9539;59.332;18.034;2024-01-07T04:14:01;6.72;;;4.45;;
18820;SDS011;9539;59.332;18.034;2024-01-07T04:16:23;9.45;;;4.72;;
18820;SDS011;9539;59.332;18.034;2024-01-07T04:18:45;8.68;;;4.40;;
18820;SDS011;9539;59.332;18.034;2024-01-07T04:21:10;7.50;;;4.57;;
18820;SDS011;9539;59.332;18.034;2024-01-07T04:23:32;8.20;;;4.55;;
18820;SDS011;9539;59.332;18.034;2024-01-07T04:25:54;7.53;;;4.20;;
18820;SDS011;9539;59.332;18.034;2024-01-07T04:28:16;7.63;;;4.90;;
18820;SDS011;9539;59.332;18.034;2024-01-07T04:30:38;6.38;;;4.20;;
18820;SDS011;9539;59.332;18.034;2024-01-07T04:33:00;6.75;;;4.30;;
18820;SDS011;9539;59.332;18.034;2024-01-07T04:35:22;7.20;;;4.47;;
18820;SDS011;9539;59.332;18.034;2024-01-07T04:37:45;6.88;;;4.10;;
18820;SDS011;9539;59.332;18.034;2024-01-07T04:40:07;5.68;;;3.78;;
18820;SDS011;9539;59.332;18.034;2024-01-07T04:42:30;6.60;;;3.60;;
18820;SDS011;9539;59.332;18.034;2024-01-07T04:44:52;5.85;;;3.58;;
18820;SDS011;9539;59.332;18.034;2024-01-07T04:47:24;6.70;;;4.03;;
18820;SDS011;9539;59.332;18.034;2024-01-07T04:49:47;7.95;;;4.07;;
18820;SDS011;9539;59.332;18.034;2024-01-07T04:52:09;9.52;;;4.38;;
18820;SDS011;9539;59.332;18.034;2024-01-07T04:54:32;7.00;;;3.92;;
18820;SDS011;9539;59.332;18.034;2024-01-07T04:56:55;7.68;;;4.03;;
18820;SDS011;9539;59.332;18.034;2024-01-07T04:59:17;5.88;;;3.95;;
18820;SDS011;9539;59.332;18.034;2024-01-07T05:01:39;6.72;;;3.92;;
18820;SDS011;9539;59.332;18.034;2024-01-07T05:04:01;6.40;;;4.43;;
18820;SDS011;9539;59.332;18.034;2024-01-07T05:06:23;6.97;;;4.47;;
18820;SDS011;9539;59.332;18.034;2024-01-07T05:08:45;6.60;;;3.92;;
18820;SDS011;9539;59.332;18.034;2024-01-07T05:11:09;6.50;;;4.10;;
18820;SDS011;9539;59.332;18.034;2024-01-07T05:13:31;6.57;;;4.18;;
18820;SDS011;9539;59.332;18.034;2024-01-07T05:15:54;7.68;;;4.40;;
18820;SDS011;9539;59.332;18.034;2024-01-07T05:18:16;9.23;;;4.45;;
18820;SDS011;9539;59.332;18.034;2024-01-07T05:20:38;7.38;;;4.20;;
18820;SDS011;9539;59.332;18.034;2024-01-07T05:23:00;8.82;;;4.60;;
18820;SDS011;9539;59.332;18.034;2024-01-07T05:25:22;8.60;;;5.20;;
18820;SDS011;9539;59.332;18.034;2024-01-07T05:27:46;7.57;;;4.57;;
18820;SDS011;9539;59.332;18.034;2024-01-07T05:30:08;6.90;;;4.43;;
18820;SDS011;9539;59.332;18.034;2024-01-07T05:32:31;8.32;;;4.57;;
18820;SDS011;9539;59.332;18.034;2024-01-07T05:34:53;7.18;;;3.97;;
18820;SDS011;9539;59.332;18.034;2024-01-07T05:37:15;8.75;;;4.43;;
18820;SDS011;9539;59.332;18.034;2024-01-07T05:39:37;6.90;;;3.83;;
18820;SDS011;9539;59.332;18.034;2024-01-07T05:41:59;7.65;;;4.38;;
18820;SDS011;9539;59.332;18.034;2024-01-07T05:44:23;5.63;;;3.38;;
18820;SDS011;9539;59.332;18.034;2024-01-07T05:46:45;8.05;;;4.40;;
18820;SDS011;9539;59.332;18.034;2024-01-07T05:49:07;6.55;;;3.75;;
18820;SDS011;9539;59.332;18.034;2024-01-07T05:51:29;8.43;;;4.13;;
18820;SDS011;9539;59.332;18.034;2024-01-07T05:53:52;7.95;;;4.18;;
18820;SDS011;9539;59.332;18.034;2024-01-07T05:56:13;7.97;;;4.35;;
18820;SDS011;9539;59.332;18.034;2024-01-07T05:58:35;9.18;;;4.57;;
18820;SDS011;9539;59.332;18.034;2024-01-07T06:00:59;6.68;;;4.07;;
18820;SDS011;9539;59.332;18.034;2024-01-07T06:03:21;8.02;;;4.85;;
18820;SDS011;9539;59.332;18.034;2024-01-07T06:05:43;6.57;;;4.50;;
18820;SDS011;9539;59.332;18.034;2024-01-07T06:08:06;6.18;;;3.80;;
18820;SDS011;9539;59.332;18.034;2024-01-07T06:10:28;11.45;;;4.65;;
18820;SDS011;9539;59.332;18.034;2024-01-07T06:12:50;8.20;;;4.90;;
18820;SDS011;9539;59.332;18.034;2024-01-07T06:15:13;8.15;;;4.10;;
18820;SDS011;9539;59.332;18.034;2024-01-07T06:17:36;9.43;;;4.97;;
18820;SDS011;9539;59.332;18.034;2024-01-07T06:19:59;9.40;;;4.72;;
18820;SDS011;9539;59.332;18.034;2024-01-07T06:22:21;10.32;;;4.63;;
18820;SDS011;9539;59.332;18.034;2024-01-07T06:24:43;9.40;;;4.40;;
18820;SDS011;9539;59.332;18.034;2024-01-07T06:27:05;6.45;;;3.72;;
18820;SDS011;9539;59.332;18.034;2024-01-07T06:29:27;8.50;;;3.90;;
18820;SDS011;9539;59.332;18.034;2024-01-07T06:31:49;7.25;;;3.70;;
18820;SDS011;9539;59.332;18.034;2024-01-07T06:34:13;7.60;;;4.60;;
18820;SDS011;9539;59.332;18.034;2024-01-07T06:36:35;7.20;;;4.60;;
18820;SDS011;9539;59.332;18.034;2024-01-07T06:38:57;7.35;;;3.70;;
18820;SDS011;9539;59.332;18.034;2024-01-07T06:41:19;5.63;;;3.60;;
18820;SDS011;9539;59.332;18.034;2024-01-07T06:43:41;6.18;;;4.05;;
18820;SDS011;9539;59.332;18.034;2024-01-07T06:46:03;14.68;;;4.10;;
18820;SDS011;9539;59.332;18.034;2024-01-07T06:48:26;7.22;;;4.15;;
18820;SDS011;9539;59.332;18.034;2024-01-07T06:50:49;11.00;;;4.15;;
18820;SDS011;9539;59.332;18.034;2024-01-07T06:53:12;8.60;;;4.90;;
18820;SDS011;9539;59.332;18.034;2024-01-07T06:55:34;10.32;;;5.32;;
18820;SDS011;9539;59.332;18.034;2024-01-07T06:57:56;9.88;;;4.25;;
18820;SDS011;9539;59.332;18.034;2024-01-07T07:00:18;10.65;;;4.47;;
18820;SDS011;9539;59.332;18.034;2024-01-07T07:02:40;7.68;;;4.43;;
18820;SDS011;9539;59.332;18.034;2024-01-07T07:05:02;8.13;;;4.10;;
18820;SDS011;9539;59.332;18.034;2024-01-07T07:07:26;8.18;;;3.70;;
18820;SDS011;9539;59.332;18.034;2024-01-07T07:09:49;6.82;;;4.50;;
18820;SDS011;9539;59.332;18.034;2024-01-07T07:12:12;6.65;;;3.80;;
18820;SDS011;9539;59.332;18.034;2024-01-07T07:14:34;5.32;;;3.67;;
18820;SDS011;9539;59.332;18.034;2024-01-07T07:16:56;5.88;;;3.63;;
18820;SDS011;9539;59.332;18.034;2024-01-07T07:19:18;7.28;;;3.72;;
18820;SDS011;9539;59.332;18.034;2024-01-07T07:21:40;7.35;;;4.07;;
18820;SDS011;9539;59.332;18.034;2024-01-07T07:24:04;4.85;;;3.63;;
18820;SDS011;9539;59.332;18.034;2024-01-07T07:26:27;7.47;;;4.05;;
18820;SDS011;9539;59.332;18.034;2024-01-07T07:28:49;5.72;;;3.47;;
18820;SDS011;9539;59.332;18.034;2024-01-07T07:31:11;6.95;;;3.60;;
18820;SDS011;9539;59.332;18.034;2024-01-07T07:33:33;5.40;;;3.65;;
18820;SDS011;9539;59.332;18.034;2024-01-07T07:35:55;5.50;;;3.45;;
18820;SDS011;9539;59.332;18.034;2024-01-07T07:38:17;7.35;;;3.63;;
18820;SDS011;9539;59.332;18.034;2024-01-07T07:40:41;7.47;;;3.63;;
18820;SDS011;9539;59.332;18.034;2024-01-07T07:43:04;5.75;;;4.00;;
18820;SDS011;9539;59.332;18.034;2024-01-07T07:45:27;9.38;;;4.45;;
18820;SDS011;9539;59.332;18.034;2024-01-07T07:47:49;9.48;;;4.30;;
18820;SDS011;9539;59.332;18.034;2024-01-07T07:50:11;7.07;;;3.58;;
18820;SDS011;9539;59.332;18.034;2024-01-07T07:52:34;8.00;;;4.40;;
18820;SDS011;9539;59.332;18.034;2024-01-07T07:54:56;6.28;;;3.88;;
18820;SDS011;9539;59.332;18.034;2024-01-07T07:59:44;4.80;;;3.55;;
18820;SDS011;9539;59.332;18.034;2024-01-07T08:02:06;7.25;;;4.00;;
18820;SDS011;9539;59.332;18.034;2024-01-07T08:04:29;5.57;;;3.75;;
18820;SDS011;9539;59.332;18.034;2024-01-07T08:06:51;5.00;;;3.53;;
18820;SDS011;9539;59.332;18.034;2024-01-07T08:09:13;9.35;;;4.20;;
18820;SDS011;9539;59.332;18.034;2024-01-07T08:11:35;6.93;;;3.83;;
18820;SDS011;9539;59.332;18.034;2024-01-07T08:13:57;5.22;;;3.42;;
18820;SDS011;9539;59.332;18.034;2024-01-07T08:16:23;5.30;;;3.67;;
18820;SDS011;9539;59.332;18.034;2024-01-07T08:18:45;7.00;;;3.97;;
18820;SDS011;9539;59.332;18.034;2024-01-07T08:21:07;6.03;;;4.00;;
18820;SDS011;9539;59.332;18.034;2024-01-07T08:23:30;6.57;;;3.88;;
18820;SDS011;9539;59.332;18.034;2024-01-07T08:25:52;5.93;;;3.55;;
18820;SDS011;9539;59.332;18.034;2024-01-07T08:28:15;9.88;;;4.40;;
18820;SDS011;9539;59.332;18.034;2024-01-07T08:30:36;6.43;;;4.38;;
18820;SDS011;9539;59.332;18.034;2024-01-07T08:33:00;8.40;;;4.18;;
18820;SDS011;9539;59.332;18.034;2024-01-07T08:35:22;8.18;;;4.45;;
18820;SDS011;9539;59.332;18.034;2024-01-07T08:37:44;8.43;;;4.68;;
18820;SDS011;9539;59.332;18.034;2024-01-07T08:40:06;8.95;;;4.90;;
18820;SDS011;9539;59.332;18.034;2024-01-07T08:42:30;8.38;;;3.92;;
18820;SDS011;9539;59.332;18.034;2024-01-07T08:44:52;7.05;;;3.97;;
18820;SDS011;9539;59.332;18.034;2024-01-07T08:47:14;7.35;;;4.00;;
18820;SDS011;9539;59.332;18.034;2024-01-07T08:49:37;6.28;;;4.00;;
18820;SDS011;9539;59.332;18.034;2024-01-07T08:51:59;9.38;;;4.32;;
18820;SDS011;9539;59.332;18.034;2024-01-07T08:54:21;6.60;;;3.70;;
18820;SDS011;9539;59.332;18.034;2024-01-07T08:56:44;7.20;;;3.85;;
18820;SDS011;9539;59.332;18.034;2024-01-07T08:59:06;8.38;;;4.28;;
18820;SDS011;9539;59.332;18.034;2024-01-07T09:01:28;6.03;;;4.07;;
18820;SDS011;9539;59.332;18.034;2024-01-07T09:03:50;11.38;;;4.80;;
18820;SDS011;9539;59.332;18.034;2024-01-07T09:06:14;9.35;;;3.90;;
18820;SDS011;9539;59.332;18.034;2024-01-07T09:08:36;6.35;;;3.83;;
18820;SDS011;9539;59.332;18.034;2024-01-07T09:10:58;7.55;;;4.20;;
18820;SDS011;9539;59.332;18.034;2024-01-07T09:13:21;10.45;;;4.65;;
18820;SDS011;9539;59.332;18.034;2024-01-07T09:15:43;9.77;;;4.18;;
18820;SDS011;9539;59.332;18.034;2024-01-07T09:18:05;7.30;;;4.40;;
18820;SDS011;9539;59.332;18.034;2024-01-07T09:20:28;8.45;;;4.90;;
18820;SDS011;9539;59.332;18.034;2024-01-07T09:22:51;10.82;;;4.72;;
18820;SDS011;9539;59.332;18.034;2024-01-07T09:25:13;8.50;;;5.10;;
18820;SDS011;9539;59.332;18.034;2024-01-07T09:27:35;9.10;;;4.60;;
18820;SDS011;9539;59.332;18.034;2024-01-07T09:29:57;8.38;;;4.57;;
18820;SDS011;9539;59.332;18.034;2024-01-07T09:32:19;9.82;;;4.75;;
18820;SDS011;9539;59.332;18.034;2024-01-07T09:34:41;10.35;;;4.57;;
18820;SDS011;9539;59.332;18.034;2024-01-07T09:37:04;9.30;;;5.30;;
18820;SDS011;9539;59.332;18.034;2024-01-07T09:39:27;8.45;;;4.95;;
18820;SDS011;9539;59.332;18.034;2024-01-07T09:41:50;9.50;;;5.50;;
18820;SDS011;9539;59.332;18.034;2024-01-07T09:44:12;7.28;;;3.85;;
18820;SDS011;9539;59.332;18.034;2024-01-07T09:46:35;6.32;;;3.95;;
18820;SDS011;9539;59.332;18.034;2024-01-07T09:49:00;8.60;;;4.57;;
18820;SDS011;9539;59.332;18.034;2024-01-07T09:51:22;8.65;;;5.50;;
18820;SDS011;9539;59.332;18.034;2024-01-07T09:53:44;8.85;;;5.53;;
18820;SDS011;9539;59.332;18.034;2024-01-07T09:56:11;11.63;;;5.28;;
18820;SDS011;9539;59.332;18.034;2024-01-07T09:58:35;8.13;;;4.75;;
18820;SDS011;9539;59.332;18.034;2024-01-07T10:00:57;7.53;;;5.10;;
18820;SDS011;9539;59.332;18.034;2024-01-07T10:03:19;9.25;;;5.20;;
18820;SDS011;9539;59.332;18.034;2024-01-07T10:05:41;10.75;;;4.63;;
18820;SDS011;9539;59.332;18.034;2024-01-07T10:08:03;10.98;;;6.82;;
18820;SDS011;9539;59.332;18.034;2024-01-07T10:10:27;18.90;;;7.88;;
18820;SDS011;9539;59.332;18.034;2024-01-07T10:12:51;9.55;;;5.20;;
18820;SDS011;9539;59.332;18.034;2024-01-07T10:15:16;12.98;;;7.50;;
18820;SDS011;9539;59.332;18.034;2024-01-07T10:17:39;9.93;;;5.35;;
18820;SDS011;9539;59.332;18.034;2024-01-07T10:20:04;11.55;;;5.88;;
18820;SDS011;9539;59.332;18.034;2024-01-07T10:22:30;12.18;;;5.15;;
18820;SDS011;9539;59.332;18.034;2024-01-07T10:24:53;9.77;;;5.93;;
18820;SDS011;9539;59.332;18.034;2024-01-07T10:27:15;12.85;;;6.65;;
18820;SDS011;9539;59.332;18.034;2024-01-07T10:29:38;14.73;;;7.30;;
18820;SDS011;9539;59.332;18.034;2024-01-07T10:32:00;13.02;;;7.68;;
18820;SDS011;9539;59.332;18.034;2024-01-07T10:34:25;14.88;;;7.43;;
18820;SDS011;9539;59.332;18.034;2024-01-07T10:36:49;10.88;;;6.28;;
18820;SDS011;9539;59.332;18.034;2024-01-07T10:39:12;11.20;;;6.22;;
18820;SDS011;9539;59.332;18.034;2024-01-07T10:41:36;13.00;;;6.45;;
18820;SDS011;9539;59.332;18.034;2024-01-07T10:43:59;9.57;;;5.88;;
18820;SDS011;9539;59.332;18.034;2024-01-07T10:46:24;14.68;;;5.97;;
18820;SDS011;9539;59.332;18.034;2024-01-07T10:48:50;12.13;;;6.78;;
18820;SDS011;9539;59.332;18.034;2024-01-07T10:51:16;12.52;;;6.03;;
18820;SDS011;9539;59.332;18.034;2024-01-07T10:53:42;13.57;;;6.07;;
18820;SDS011;9539;59.332;18.034;2024-01-07T10:56:07;14.68;;;6.55;;
18820;SDS011;9539;59.332;18.034;2024-01-07T10:58:33;13.40;;;6.22;;
18820;SDS011;9539;59.332;18.034;2024-01-07T11:00:56;11.13;;;6.53;;
18820;SDS011;9539;59.332;18.034;2024-01-07T11:03:27;12.05;;;6.38;;
18820;SDS011;9539;59.332;18.034;2024-01-07T11:05:58;12.77;;;6.72;;
18820;SDS011;9539;59.332;18.034;2024-01-07T11:08:25;13.88;;;6.88;;
18820;SDS011;9539;59.332;18.034;2024-01-07T11:10:53;13.73;;;5.80;;
18820;SDS011;9539;59.332;18.034;2024-01-07T11:13:32;11.70;;;5.40;;
18820;SDS011;9539;59.332;18.034;2024-01-07T11:15:55;12.82;;;6.47;;
18820;SDS011;9539;59.332;18.034;2024-01-07T11:18:18;16.27;;;7.68;;
18820;SDS011;9539;59.332;18.034;2024-01-07T11:20:41;11.98;;;6.20;;
18820;SDS011;9539;59.332;18.034;2024-01-07T11:25:52;10.55;;;5.45;;
18820;SDS011;9539;59.332;18.034;2024-01-07T11:28:14;11.95;;;6.45;;
18820;SDS011;9539;59.332;18.034;2024-01-07T11:30:38;13.02;;;6.43;;
18820;SDS011;9539;59.332;18.034;2024-01-07T11:33:02;13.40;;;6.50;;
18820;SDS011;9539;59.332;18.034;2024-01-07T11:38:22;15.55;;;7.75;;
18820;SDS011;9539;59.332;18.034;2024-01-07T11:40:44;13.98;;;6.47;;
18820;SDS011;9539;59.332;18.034;2024-01-07T11:43:08;10.73;;;5.85;;
18820;SDS011;9539;59.332;18.034;2024-01-07T11:45:31;9.63;;;5.40;;
18820;SDS011;9539;59.332;18.034;2024-01-07T11:47:53;9.57;;;6.13;;
18820;SDS011;9539;59.332;18.034;2024-01-07T11:50:15;12.98;;;6.75;;
18820;SDS011;9539;59.332;18.034;2024-01-07T11:52:38;12.85;;;5.97;;
18820;SDS011;9539;59.332;18.034;2024-01-07T11:55:00;19.55;;;8.02;;
18820;SDS011;9539;59.332;18.034;2024-01-07T11:57:22;11.10;;;6.15;;
18820;SDS011;9539;59.332;18.034;2024-01-07T11:59:44;11.27;;;6.32;;
18820;SDS011;9539;59.332;18.034;2024-01-07T12:02:07;10.40;;;6.40;;
18820;SDS011;9539;59.332;18.034;2024-01-07T12:04:29;10.15;;;5.25;;
18820;SDS011;9539;59.332;18.034;2024-01-07T12:06:51;9.75;;;6.22;;
18820;SDS011;9539;59.332;18.034;2024-01-07T12:09:14;12.98;;;5.95;;
18820;SDS011;9539;59.332;18.034;2024-01-07T12:11:37;11.32;;;5.30;;
18820;SDS011;9539;59.332;18.034;2024-01-07T12:14:00;12.95;;;6.60;;
18820;SDS011;9539;59.332;18.034;2024-01-07T12:16:23;15.05;;;6.70;;
18820;SDS011;9539;59.332;18.034;2024-01-07T12:18:45;20.00;;;6.85;;
18820;SDS011;9539;59.332;18.034;2024-01-07T12:21:07;9.27;;;5.68;;
18820;SDS011;9539;59.332;18.034;2024-01-07T12:23:33;9.70;;;5.72;;
18820;SDS011;9539;59.332;18.034;2024-01-07T12:25:59;14.93;;;6.07;;
18820;SDS011;9539;59.332;18.034;2024-01-07T12:28:28;11.80;;;6.20;;
18820;SDS011;9539;59.332;18.034;2024-01-07T12:30:50;9.43;;;6.10;;
18820;SDS011;9539;59.332;18.034;2024-01-07T12:33:15;11.45;;;5.55;;
18820;SDS011;9539;59.332;18.034;2024-01-07T12:35:38;8.95;;;5.40;;
18820;SDS011;9539;59.332;18.034;2024-01-07T12:38:01;9.13;;;5.43;;
18820;SDS011;9539;59.332;18.034;2024-01-07T12:40:23;12.35;;;6.13;;
18820;SDS011;9539;59.332;18.034;2024-01-07T12:42:48;10.48;;;6.18;;
18820;SDS011;9539;59.332;18.034;2024-01-07T12:45:11;11.18;;;5.88;;
18820;SDS011;9539;59.332;18.034;2024-01-07T12:47:33;14.20;;;6.40;;
18820;SDS011;9539;59.332;18.034;2024-01-07T12:49:55;12.60;;;6.20;;
18820;SDS011;9539;59.332;18.034;2024-01-07T12:52:18;11.20;;;6.10;;
18820;SDS011;9539;59.332;18.034;2024-01-07T12:54:40;10.25;;;5.80;;
18820;SDS011;9539;59.332;18.034;2024-01-07T12:57:02;11.60;;;6.55;;
18820;SDS011;9539;59.332;18.034;2024-01-07T12:59:26;12.07;;;6.22;;
18820;SDS011;9539;59.332;18.034;2024-01-07T13:01:48;11.35;;;6.18;;
18820;SDS011;9539;59.332;18.034;2024-01-07T13:04:11;9.52;;;6.00;;
18820;SDS011;9539;59.332;18.034;2024-01-07T13:06:33;12.98;;;6.03;;
18820;SDS011;9539;59.332;18.034;2024-01-07T13:08:55;11.05;;;6.07;;
18820;SDS011;9539;59.332;18.034;2024-01-07T13:11:17;14.32;;;6.72;;
18820;SDS011;9539;59.332;18.034;2024-01-07T13:13:39;9.75;;;5.55;;
18820;SDS011;9539;59.332;18.034;2024-01-07T13:16:02;14.75;;;5.43;;
18820;SDS011;9539;59.332;18.034;2024-01-07T13:18:25;11.38;;;5.75;;
18820;SDS011;9539;59.332;18.034;2024-01-07T13:20:47;13.25;;;5.80;;
18820;SDS011;9539;59.332;18.034;2024-01-07T13:23:09;12.23;;;6.50;;
18820;SDS011;9539;59.332;18.034;2024-01-07T13:25:31;11.65;;;6.47;;
18820;SDS011;9539;59.332;18.034;2024-01-07T13:27:52;10.85;;;6.15;;
18820;SDS011;9539;59.332;18.034;2024-01-07T13:30:15;13.50;;;5.85;;
18820;SDS011;9539;59.332;18.034;2024-01-07T13:32:38;12.27;;;6.35;;
18820;SDS011;9539;59.332;18.034;2024-01-07T13:35:00;13.82;;;6.25;;
18820;SDS011;9539;59.332;18.034;2024-01-07T13:37:22;11.98;;;6.13;;
18820;SDS011;9539;59.332;18.034;2024-01-07T13:39:44;10.48;;;5.95;;
18820;SDS011;9539;59.332;18.034;2024-01-07T13:42:06;12.95;;;5.97;;
18820;SDS011;9539;59.332;18.034;2024-01-07T13:44:28;13.60;;;6.40;;
18820;SDS011;9539;59.332;18.034;2024-01-07T13:46:50;14.25;;;6.35;;
18820;SDS011;9539;59.332;18.034;2024-01-07T13:49:15;12.63;;;6.60;;
18820;SDS011;9539;59.332;18.034;2024-01-07T13:51:37;13.40;;;6.85;;
18820;SDS011;9539;59.332;18.034;2024-01-07T13:53:59;16.10;;;8.20;;
18820;SDS011;9539;59.332;18.034;2024-01-07T13:56:23;11.80;;;7.03;;
18820;SDS011;9539;59.332;18.034;2024-01-07T13:58:45;14.32;;;6.65;;
18820;SDS011;9539;59.332;18.034;2024-01-07T14:01:07;12.70;;;7.18;;
18820;SDS011;9539;59.332;18.034;2024-01-07T14:03:29;12.02;;;7.00;;
18820;SDS011;9539;59.332;18.034;2024-01-07T14:05:54;14.80;;;7.15;;
18820;SDS011;9539;59.332;18.034;2024-01-07T14:08:16;13.93;;;6.55;;
18820;SDS011;9539;59.332;18.034;2024-01-07T14:10:38;13.48;;;6.63;;
18820;SDS011;9539;59.332;18.034;2024-01-07T14:13:00;13.50;;;6.72;;
18820;SDS011;9539;59.332;18.034;2024-01-07T14:15:22;11.65;;;6.30;;
18820;SDS011;9539;59.332;18.034;2024-01-07T14:17:44;12.05;;;6.55;;
18820;SDS011;9539;59.332;18.034;2024-01-07T14:20:06;9.57;;;6.53;;
18820;SDS011;9539;59.332;18.034;2024-01-07T14:22:30;13.77;;;7.10;;
18820;SDS011;9539;59.332;18.034;2024-01-07T14:24:52;12.57;;;6.85;;